Cow Head, Canada
Current Conditions -  °F | °C
As of 12:00 AM on Saturday 29 Nov 2014 (Local Time) from CWDH Reporting Station
Broken Clouds Broken Clouds  
Wind Chill: 23°   Ceiling: 2800
Heat Index: 23°   Visibility: 9mi
Dew Point: 15°   Wind: 3mph
Humidity: 72%   Direction: 100°E
Pressure: 29.88"   Gusts: NA
Location:  49.92°N, 57.9°W
Report Text: CWDH 290300Z AUTO 10003KT 9SM BKN028 M05/M10 A2988 RMK SLP122 T10521096 WSI/SWOB
Loading
Personal Weather Stations






























Interactive Weather Map New forecast layout! Learn more

10-Day Weather Forecast

Advertisements
Track Severe Weather on mobile